Time;durP1;ratioP1;P1;durP2;ratioP2;P2;SDS_P1;SDS_P2;PMS_P1;PMS_P2;Temp;Humidity;BMP_temperature;BMP_pressure;BME280_temperature;BME280_humidity;BME280_pressure;Samples;Min_cycle;Max_cycle;Signal;HPM_P1;HPM_P2
2023/09/16 00:00:25;;;;;;;4.85;3.10;;;;;;;;;;5030833;28;20033;-73
2023/09/16 00:02:51;;;;;;;10.30;4.83;;;;;;;;;;5030451;28;20025;-73
2023/09/16 00:05:17;;;;;;;7.55;3.17;;;;;;;;;;5034200;28;20276;-73
2023/09/16 00:07:42;;;;;;;7.35;3.30;;;;;;;;;;5037452;28;20045;-73
2023/09/16 00:10:07;;;;;;;5.67;3.00;;;;;;;;;;5032812;28;20471;-73
2023/09/16 00:12:32;;;;;;;8.68;3.20;;;;;;;;;;5032539;28;20264;-73
2023/09/16 00:14:58;;;;;;;7.97;2.83;;;;;;;;;;5033503;28;20091;-73
2023/09/16 00:17:23;;;;;;;7.27;2.77;;;;;;;;;;5035347;28;20279;-73
2023/09/16 00:19:48;;;;;;;6.70;2.60;;;;;;;;;;5033518;28;20275;-73
2023/09/16 00:22:13;;;;;;;4.40;2.80;;;;;;;;;;5033569;28;21222;-73
2023/09/16 00:24:40;;;;;;;6.00;2.92;;;;;;;;;;5037235;28;20283;-73
2023/09/16 00:27:05;;;;;;;10.57;3.40;;;;;;;;;;5033725;28;20028;-73
2023/09/16 00:29:30;;;;;;;5.78;2.70;;;;;;;;;;5035146;28;20025;-73
2023/09/16 00:31:56;;;;;;;8.80;3.63;;;;;;;;;;5034037;28;20032;-74
2023/09/16 00:34:21;;;;;;;7.70;3.17;;;;;;;;;;5034511;28;20289;-73
2023/09/16 00:36:47;;;;;;;6.88;2.60;;;;;;;;;;5038537;28;20104;-73
2023/09/16 00:39:12;;;;;;;6.68;3.53;;;;;;;;;;5036655;28;20020;-73
2023/09/16 00:41:39;;;;;;;7.60;3.43;;;;;;;;;;5036043;28;20060;-73
2023/09/16 00:44:04;;;;;;;4.68;3.15;;;;;;;;;;5035184;28;20348;-73
2023/09/16 00:46:29;;;;;;;6.40;2.80;;;;;;;;;;5031842;28;20464;-73
2023/09/16 00:48:54;;;;;;;5.75;2.92;;;;;;;;;;5030919;28;20252;-73
2023/09/16 00:51:20;;;;;;;8.73;3.23;;;;;;;;;;5033531;28;20408;-73
2023/09/16 00:53:45;;;;;;;7.78;3.38;;;;;;;;;;5033936;28;20302;-73
2023/09/16 00:56:11;;;;;;;5.25;2.60;;;;;;;;;;5031326;28;20491;-73
2023/09/16 00:58:36;;;;;;;7.00;3.22;;;;;;;;;;5033335;28;20541;-73
2023/09/16 01:01:02;;;;;;;5.28;3.08;;;;;;;;;;5035168;28;20117;-73
2023/09/16 01:03:27;;;;;;;4.70;2.78;;;;;;;;;;5032210;28;20022;-73
2023/09/16 01:05:54;;;;;;;7.55;3.30;;;;;;;;;;5030979;28;20028;-73
2023/09/16 01:08:20;;;;;;;5.15;3.38;;;;;;;;;;5037899;28;20021;-73
2023/09/16 01:10:45;;;;;;;7.45;2.78;;;;;;;;;;5036447;28;20475;-73
2023/09/16 01:13:10;;;;;;;14.70;2.80;;;;;;;;;;5034448;28;20053;-73
2023/09/16 01:15:44;;;;;;;5.00;3.00;;;;;;;;;;5033273;28;20366;-73
2023/09/16 01:18:19;;;;;;;6.22;3.28;;;;;;;;;;5028762;28;20436;-73
2023/09/16 01:20:45;;;;;;;9.25;3.08;;;;;;;;;;5030864;28;20071;-73
2023/09/16 01:23:10;;;;;;;10.75;3.17;;;;;;;;;;5031734;28;20022;-73
2023/09/16 01:25:35;;;;;;;5.45;3.15;;;;;;;;;;5031753;28;20017;-73
2023/09/16 01:28:01;;;;;;;10.50;3.17;;;;;;;;;;5035050;28;20028;-73
2023/09/16 01:30:27;;;;;;;6.93;3.50;;;;;;;;;;5034133;28;20635;-73
2023/09/16 01:33:11;;;;;;;7.03;2.75;;;;;;;;;;5034563;28;20024;-73
2023/09/16 01:35:39;;;;;;;4.25;2.70;;;;;;;;;;5031921;28;20021;-73
2023/09/16 01:38:06;;;;;;;7.05;3.42;;;;;;;;;;5034806;28;20403;-73
2023/09/16 01:40:32;;;;;;;6.00;3.38;;;;;;;;;;5038118;28;20021;-73
2023/09/16 01:42:58;;;;;;;13.10;3.13;;;;;;;;;;5034021;28;20062;-73
2023/09/16 01:45:24;;;;;;;4.88;3.03;;;;;;;;;;5029359;28;20018;-73
2023/09/16 01:47:49;;;;;;;8.68;3.10;;;;;;;;;;5035550;28;20051;-73
2023/09/16 01:50:14;;;;;;;7.57;3.08;;;;;;;;;;5033177;28;20088;-73
2023/09/16 01:52:39;;;;;;;5.40;2.70;;;;;;;;;;5038187;28;20033;-73
2023/09/16 01:55:05;;;;;;;5.18;3.05;;;;;;;;;;5030343;28;20286;-73
2023/09/16 01:57:30;;;;;;;7.75;3.15;;;;;;;;;;5037166;28;20025;-73
2023/09/16 01:59:55;;;;;;;5.10;3.17;;;;;;;;;;5030906;28;20040;-73
2023/09/16 02:02:21;;;;;;;6.50;2.58;;;;;;;;;;5032726;28;20025;-73
2023/09/16 02:04:46;;;;;;;4.65;3.00;;;;;;;;;;5033552;28;21256;-73
2023/09/16 02:07:12;;;;;;;11.53;3.40;;;;;;;;;;5030685;28;20021;-73
2023/09/16 02:09:37;;;;;;;5.53;3.25;;;;;;;;;;5030238;28;20017;-73
2023/09/16 02:12:02;;;;;;;5.87;3.37;;;;;;;;;;5028251;28;20018;-73
2023/09/16 02:14:27;;;;;;;8.80;3.75;;;;;;;;;;5029580;28;20329;-73
2023/09/16 02:16:53;;;;;;;5.75;3.00;;;;;;;;;;5030272;28;20025;-73
2023/09/16 02:19:18;;;;;;;6.65;3.10;;;;;;;;;;5033270;28;20017;-73
2023/09/16 02:21:43;;;;;;;5.43;2.70;;;;;;;;;;5033912;28;20472;-73
2023/09/16 02:24:08;;;;;;;8.77;2.67;;;;;;;;;;5034244;28;20031;-73
2023/09/16 02:26:33;;;;;;;13.50;3.90;;;;;;;;;;5035974;28;20248;-73
2023/09/16 02:28:58;;;;;;;5.87;3.30;;;;;;;;;;5029981;28;20061;-73
2023/09/16 02:31:26;;;;;;;8.93;3.57;;;;;;;;;;5034254;28;20032;-73
2023/09/16 02:33:58;;;;;;;5.03;3.08;;;;;;;;;;5035234;28;20318;-73
2023/09/16 02:36:23;;;;;;;7.20;3.33;;;;;;;;;;5028520;28;20419;-73
2023/09/16 02:38:48;;;;;;;8.65;3.13;;;;;;;;;;5036592;28;20023;-73
2023/09/16 02:41:17;;;;;;;4.47;2.60;;;;;;;;;;5032295;28;20021;-73
2023/09/16 02:43:42;;;;;;;5.10;3.13;;;;;;;;;;5030426;28;20542;-73
2023/09/16 02:46:08;;;;;;;5.00;2.95;;;;;;;;;;5033789;28;20029;-73
2023/09/16 02:48:33;;;;;;;6.03;3.33;;;;;;;;;;5035322;28;20026;-73
2023/09/16 02:50:58;;;;;;;7.40;3.10;;;;;;;;;;5031684;28;20260;-73
2023/09/16 02:53:23;;;;;;;10.27;3.40;;;;;;;;;;5032668;28;20257;-73
2023/09/16 02:55:48;;;;;;;4.35;3.28;;;;;;;;;;5028058;28;20021;-73
2023/09/16 02:58:14;;;;;;;6.97;3.00;;;;;;;;;;5029098;28;20543;-73
2023/09/16 03:00:42;;;;;;;7.00;3.10;;;;;;;;;;5033330;28;20021;-73
2023/09/16 03:03:07;;;;;;;8.15;3.50;;;;;;;;;;5032578;28;20092;-73
2023/09/16 03:05:32;;;;;;;10.33;3.93;;;;;;;;;;5031893;28;20495;-73
2023/09/16 03:07:57;;;;;;;6.43;3.47;;;;;;;;;;5030467;28;20269;-73
2023/09/16 03:10:23;;;;;;;11.40;3.60;;;;;;;;;;5029975;28;20284;-73
2023/09/16 03:12:48;;;;;;;6.10;3.07;;;;;;;;;;5028910;28;20099;-73
2023/09/16 03:15:13;;;;;;;5.27;2.83;;;;;;;;;;5026921;28;20025;-73
2023/09/16 03:17:38;;;;;;;5.83;3.43;;;;;;;;;;5031527;28;20270;-73
2023/09/16 03:20:04;;;;;;;10.97;3.47;;;;;;;;;;5029040;28;20260;-73
2023/09/16 03:22:29;;;;;;;5.65;3.38;;;;;;;;;;5027636;28;20750;-73
2023/09/16 03:24:54;;;;;;;10.87;3.23;;;;;;;;;;5027227;28;20148;-73
2023/09/16 03:27:19;;;;;;;5.93;3.40;;;;;;;;;;5032611;28;20468;-73
2023/09/16 03:29:44;;;;;;;5.70;3.47;;;;;;;;;;5034894;28;20314;-73
2023/09/16 03:32:09;;;;;;;10.87;3.73;;;;;;;;;;5033127;28;20078;-73
2023/09/16 03:34:35;;;;;;;5.87;3.20;;;;;;;;;;5031297;28;20319;-73
2023/09/16 03:37:00;;;;;;;7.47;3.73;;;;;;;;;;5033133;28;20756;-73
2023/09/16 03:39:25;;;;;;;9.33;3.53;;;;;;;;;;5031039;28;20280;-73
2023/09/16 03:41:50;;;;;;;6.23;3.60;;;;;;;;;;5039731;28;20329;-73
2023/09/16 03:44:15;;;;;;;6.40;2.80;;;;;;;;;;5032933;28;20291;-73
2023/09/16 03:46:41;;;;;;;5.47;3.33;;;;;;;;;;5035160;28;20630;-72
2023/09/16 03:49:06;;;;;;;6.40;3.13;;;;;;;;;;5033296;28;20018;-73
2023/09/16 03:51:33;;;;;;;8.43;3.20;;;;;;;;;;5028701;28;20097;-73
2023/09/16 03:53:58;;;;;;;4.20;2.97;;;;;;;;;;5035166;28;20025;-73
2023/09/16 03:56:24;;;;;;;5.68;3.42;;;;;;;;;;5033348;28;20070;-73
2023/09/16 03:58:49;;;;;;;5.37;3.43;;;;;;;;;;5032774;28;20480;-73
2023/09/16 04:01:14;;;;;;;8.53;3.53;;;;;;;;;;5033609;28;20275;-73
2023/09/16 04:03:39;;;;;;;7.80;3.28;;;;;;;;;;5036625;28;20291;-73
2023/09/16 04:06:05;;;;;;;5.57;3.53;;;;;;;;;;5035757;28;20080;-73
2023/09/16 04:08:30;;;;;;;6.80;3.67;;;;;;;;;;5037188;28;20260;-73
2023/09/16 04:10:56;;;;;;;6.53;3.25;;;;;;;;;;5029070;28;20748;-73
2023/09/16 04:13:22;;;;;;;7.45;3.10;;;;;;;;;;5033568;28;20032;-73
2023/09/16 04:15:47;;;;;;;5.30;3.25;;;;;;;;;;5034221;28;20017;-73
2023/09/16 04:18:13;;;;;;;5.63;3.35;;;;;;;;;;5034144;28;20022;-73
2023/09/16 04:20:38;;;;;;;9.68;3.58;;;;;;;;;;5033649;28;20093;-73
2023/09/16 04:23:03;;;;;;;6.30;3.60;;;;;;;;;;5031333;28;20148;-73
2023/09/16 04:25:30;;;;;;;5.97;4.00;;;;;;;;;;5025062;28;20468;-73
2023/09/16 04:27:55;;;;;;;10.88;3.13;;;;;;;;;;5028935;28;20020;-73
2023/09/16 04:30:20;;;;;;;8.57;3.72;;;;;;;;;;5033147;28;20279;-73
2023/09/16 04:32:46;;;;;;;10.90;3.05;;;;;;;;;;5034308;28;20072;-73
2023/09/16 04:35:11;;;;;;;13.68;4.18;;;;;;;;;;5033790;28;20028;-73
2023/09/16 04:37:36;;;;;;;8.03;3.80;;;;;;;;;;5037072;28;20103;-73
2023/09/16 04:40:06;;;;;;;8.13;4.20;;;;;;;;;;5030122;28;20272;-73
2023/09/16 04:42:32;;;;;;;8.13;3.75;;;;;;;;;;5035701;28;20268;-73
2023/09/16 04:44:58;;;;;;;7.60;3.17;;;;;;;;;;5033852;28;20022;-73
2023/09/16 04:47:23;;;;;;;5.22;3.53;;;;;;;;;;5035842;28;20025;-73
2023/09/16 04:49:48;;;;;;;5.93;3.63;;;;;;;;;;5036837;28;20018;-73
2023/09/16 04:52:14;;;;;;;5.60;3.13;;;;;;;;;;5032239;28;20257;-73
2023/09/16 04:54:40;;;;;;;6.07;3.87;;;;;;;;;;5029331;28;20322;-73
2023/09/16 04:57:05;;;;;;;12.68;3.40;;;;;;;;;;5027449;28;20778;-73
2023/09/16 04:59:32;;;;;;;9.27;3.55;;;;;;;;;;5028166;28;20030;-73
2023/09/16 05:01:58;;;;;;;4.95;3.42;;;;;;;;;;5034978;28;20032;-73
2023/09/16 05:04:23;;;;;;;7.40;3.55;;;;;;;;;;5030724;28;20029;-73
2023/09/16 05:06:48;;;;;;;7.77;3.63;;;;;;;;;;5033752;28;20029;-73
2023/09/16 05:09:13;;;;;;;6.45;3.85;;;;;;;;;;5032649;28;20264;-73
2023/09/16 05:11:38;;;;;;;6.70;3.90;;;;;;;;;;5030770;28;20029;-73
2023/09/16 05:14:03;;;;;;;5.17;3.20;;;;;;;;;;5029924;28;21015;-73
2023/09/16 05:16:29;;;;;;;8.47;4.20;;;;;;;;;;5027813;28;20748;-73
2023/09/16 05:18:54;;;;;;;6.80;3.10;;;;;;;;;;5028249;28;20276;-73
2023/09/16 05:21:19;;;;;;;5.07;3.43;;;;;;;;;;5032315;28;20260;-73
2023/09/16 05:23:44;;;;;;;9.43;4.00;;;;;;;;;;5033743;28;20774;-73
2023/09/16 05:26:12;;;;;;;11.10;4.00;;;;;;;;;;5034678;28;20252;-72
2023/09/16 05:28:38;;;;;;;8.65;3.88;;;;;;;;;;5029483;28;20014;-73
2023/09/16 05:31:03;;;;;;;8.40;4.07;;;;;;;;;;5030769;28;20468;-73
2023/09/16 05:33:29;;;;;;;5.60;3.58;;;;;;;;;;5032312;28;20330;-73
2023/09/16 05:35:54;;;;;;;7.07;3.60;;;;;;;;;;5032749;28;20025;-73
2023/09/16 05:38:19;;;;;;;9.80;3.47;;;;;;;;;;5031053;28;20271;-73
2023/09/16 05:40:44;;;;;;;6.47;3.90;;;;;;;;;;5032796;28;20388;-73
2023/09/16 05:43:09;;;;;;;6.53;3.67;;;;;;;;;;5034688;28;20025;-73
2023/09/16 05:45:36;;;;;;;5.63;3.53;;;;;;;;;;5032834;28;20017;-73
2023/09/16 05:48:02;;;;;;;6.07;3.95;;;;;;;;;;5031767;28;20271;-73
2023/09/16 05:50:27;;;;;;;5.13;3.28;;;;;;;;;;5033421;28;20443;-73
2023/09/16 05:52:52;;;;;;;8.33;3.53;;;;;;;;;;5027264;28;20061;-73
2023/09/16 05:55:17;;;;;;;7.63;3.83;;;;;;;;;;5024942;28;20666;-73
2023/09/16 05:57:43;;;;;;;8.82;3.85;;;;;;;;;;5033681;28;20036;-73
2023/09/16 06:00:08;;;;;;;8.63;3.65;;;;;;;;;;5025066;28;20052;-73
2023/09/16 06:02:38;;;;;;;4.90;3.40;;;;;;;;;;5027450;28;20488;-73
2023/09/16 06:05:04;;;;;;;6.35;3.88;;;;;;;;;;5030595;28;20014;-73
2023/09/16 06:07:29;;;;;;;6.03;3.92;;;;;;;;;;5029451;28;20084;-73
2023/09/16 06:09:54;;;;;;;6.07;4.10;;;;;;;;;;5031437;28;20027;-73
2023/09/16 06:12:19;;;;;;;6.03;3.43;;;;;;;;;;5034357;28;20258;-73
2023/09/16 06:14:44;;;;;;;5.37;3.13;;;;;;;;;;5029212;28;20342;-73
2023/09/16 06:17:10;;;;;;;9.33;3.17;;;;;;;;;;5027179;28;20033;-73
2023/09/16 06:19:37;;;;;;;5.30;3.33;;;;;;;;;;5033882;28;20025;-73
2023/09/16 06:22:03;;;;;;;4.95;3.30;;;;;;;;;;5030726;28;20298;-72
2023/09/16 06:24:28;;;;;;;6.35;3.08;;;;;;;;;;5022795;28;20026;-73
2023/09/16 06:26:53;;;;;;;9.43;3.40;;;;;;;;;;5026053;28;20265;-73
2023/09/16 06:29:18;;;;;;;8.93;3.00;;;;;;;;;;5027426;28;20058;-73
2023/09/16 06:31:43;;;;;;;4.83;2.90;;;;;;;;;;5029571;28;20525;-73
2023/09/16 06:34:08;;;;;;;8.63;3.20;;;;;;;;;;5030953;28;20267;-72
2023/09/16 06:36:34;;;;;;;7.37;2.87;;;;;;;;;;5025556;28;20049;-73
2023/09/16 06:39:00;;;;;;;6.30;3.08;;;;;;;;;;5026099;28;20578;-73
2023/09/16 06:41:25;;;;;;;4.43;2.70;;;;;;;;;;5030175;28;20017;-73
2023/09/16 06:43:50;;;;;;;6.10;3.15;;;;;;;;;;5030137;28;20020;-73
2023/09/16 06:46:17;;;;;;;5.23;2.77;;;;;;;;;;5023605;28;20463;-73
2023/09/16 06:48:44;;;;;;;4.78;2.88;;;;;;;;;;5030827;28;20033;-73
2023/09/16 06:51:09;;;;;;;5.55;2.65;;;;;;;;;;5025436;28;20021;-73
2023/09/16 06:53:34;;;;;;;8.33;2.87;;;;;;;;;;5026315;28;20025;-73
2023/09/16 06:56:00;;;;;;;5.90;2.80;;;;;;;;;;5025222;28;20491;-73
2023/09/16 06:58:25;;;;;;;8.75;3.05;;;;;;;;;;5026226;28;20108;-73
2023/09/16 07:00:50;;;;;;;6.43;2.37;;;;;;;;;;5026294;28;20060;-73
2023/09/16 07:03:15;;;;;;;4.32;2.45;;;;;;;;;;5029201;28;20021;-73
2023/09/16 07:05:48;;;;;;;4.72;2.90;;;;;;;;;;5029236;28;20421;-73
2023/09/16 07:08:17;;;;;;;4.10;2.40;;;;;;;;;;5020446;28;20030;-74
2023/09/16 07:10:42;;;;;;;12.17;2.87;;;;;;;;;;5023406;28;20017;-74
2023/09/16 07:13:07;;;;;;;6.47;2.80;;;;;;;;;;5028450;28;20022;-73
2023/09/16 07:15:32;;;;;;;4.35;2.47;;;;;;;;;;5029726;28;20524;-73
2023/09/16 07:17:58;;;;;;;5.77;2.57;;;;;;;;;;5032077;28;20072;-73
2023/09/16 07:20:23;;;;;;;5.70;2.70;;;;;;;;;;5029377;28;20508;-73
2023/09/16 07:22:49;;;;;;;6.53;2.67;;;;;;;;;;5028123;28;20032;-73
2023/09/16 07:25:15;;;;;;;7.40;2.63;;;;;;;;;;5030797;28;20101;-73
2023/09/16 07:27:40;;;;;;;9.07;2.90;;;;;;;;;;5030818;28;20109;-73
2023/09/16 07:30:05;;;;;;;3.13;2.07;;;;;;;;;;5032565;28;20300;-74
2023/09/16 07:32:30;;;;;;;5.35;2.92;;;;;;;;;;5028701;28;20353;-73
2023/09/16 07:34:56;;;;;;;4.18;2.97;;;;;;;;;;5029238;28;20032;-73
2023/09/16 07:37:21;;;;;;;5.90;2.90;;;;;;;;;;5027273;28;20029;-74
2023/09/16 07:39:47;;;;;;;4.60;2.57;;;;;;;;;;5035247;28;20025;-73
2023/09/16 07:42:12;;;;;;;4.07;2.63;;;;;;;;;;5034357;28;20276;-74
2023/09/16 07:44:37;;;;;;;4.32;2.70;;;;;;;;;;5032589;28;20021;-74
2023/09/16 07:47:02;;;;;;;4.50;2.70;;;;;;;;;;5029193;28;20055;-74
2023/09/16 07:49:28;;;;;;;5.13;2.22;;;;;;;;;;5028837;28;20059;-74
2023/09/16 07:51:53;;;;;;;3.70;2.10;;;;;;;;;;5027209;28;20018;-74
2023/09/16 07:54:18;;;;;;;2.33;1.97;;;;;;;;;;5030206;28;20388;-74
2023/09/16 07:56:43;;;;;;;3.07;2.27;;;;;;;;;;5031657;28;20383;-74
2023/09/16 07:59:09;;;;;;;5.37;2.50;;;;;;;;;;5029619;28;20025;-74
2023/09/16 08:01:34;;;;;;;7.72;2.00;;;;;;;;;;5028552;28;20494;-74
2023/09/16 08:03:59;;;;;;;1.73;1.30;;;;;;;;;;5031404;28;20025;-74
2023/09/16 08:06:26;;;;;;;4.23;2.00;;;;;;;;;;5030817;28;20021;-74
2023/09/16 08:08:51;;;;;;;3.20;1.67;;;;;;;;;;5031607;28;20443;-73
2023/09/16 08:11:17;;;;;;;6.05;2.30;;;;;;;;;;5028232;28;20029;-74
2023/09/16 08:13:42;;;;;;;6.85;2.65;;;;;;;;;;5030495;28;20033;-73
2023/09/16 08:16:07;;;;;;;2.53;1.83;;;;;;;;;;5027227;28;20060;-73
2023/09/16 08:18:32;;;;;;;4.33;2.73;;;;;;;;;;5029664;28;20021;-73
2023/09/16 08:20:57;;;;;;;5.57;2.80;;;;;;;;;;5030912;28;20029;-73
2023/09/16 08:23:23;;;;;;;4.93;2.60;;;;;;;;;;5026724;28;20053;-73
2023/09/16 08:25:48;;;;;;;4.43;2.30;;;;;;;;;;5028611;28;20020;-74
2023/09/16 08:28:13;;;;;;;8.00;2.53;;;;;;;;;;5032225;28;20355;-74
2023/09/16 08:30:38;;;;;;;4.33;2.47;;;;;;;;;;5031046;28;20295;-74
2023/09/16 08:33:04;;;;;;;5.45;2.58;;;;;;;;;;5027753;28;20335;-73
2023/09/16 08:35:29;;;;;;;4.55;2.33;;;;;;;;;;5029179;28;20472;-73
2023/09/16 08:37:54;;;;;;;3.97;2.40;;;;;;;;;;5026889;28;20083;-74
2023/09/16 08:40:20;;;;;;;5.88;2.30;;;;;;;;;;5034519;28;20019;-74
2023/09/16 08:42:51;;;;;;;5.43;2.40;;;;;;;;;;5030686;28;20029;-73
2023/09/16 08:45:19;;;;;;;4.15;2.80;;;;;;;;;;5033091;28;20028;-74
2023/09/16 08:47:48;;;;;;;4.00;2.38;;;;;;;;;;5029436;28;20139;-74
2023/09/16 08:50:15;;;;;;;4.43;2.77;;;;;;;;;;5030061;28;20087;-73
2023/09/16 08:52:46;;;;;;;9.20;2.60;;;;;;;;;;5032965;28;20021;-73
2023/09/16 08:55:13;;;;;;;4.65;2.75;;;;;;;;;;5032019;28;20021;-73
2023/09/16 08:57:38;;;;;;;6.15;2.47;;;;;;;;;;5029832;28;20025;-73
2023/09/16 09:00:04;;;;;;;3.75;3.00;;;;;;;;;;5029306;28;20488;-73
2023/09/16 09:02:30;;;;;;;5.63;3.03;;;;;;;;;;5030311;28;20033;-73
2023/09/16 09:04:55;;;;;;;9.18;3.55;;;;;;;;;;5022438;28;20086;-73
2023/09/16 09:07:21;;;;;;;3.08;2.40;;;;;;;;;;5043973;28;20044;-73
2023/09/16 09:09:46;;;;;;;4.93;2.28;;;;;;;;;;5026287;28;20104;-73
2023/09/16 09:12:11;;;;;;;4.23;2.57;;;;;;;;;;5031580;28;20023;-73
2023/09/16 09:14:37;;;;;;;5.60;3.42;;;;;;;;;;5028326;28;20021;-73
2023/09/16 09:17:02;;;;;;;4.32;2.78;;;;;;;;;;5027599;28;20076;-73
2023/09/16 09:19:28;;;;;;;7.15;2.92;;;;;;;;;;5025342;28;20045;-73
2023/09/16 09:21:56;;;;;;;5.27;1.90;;;;;;;;;;5023719;28;20037;-73
2023/09/16 09:24:21;;;;;;;2.50;1.42;;;;;;;;;;5024758;28;20758;-73
2023/09/16 09:26:46;;;;;;;3.57;2.57;;;;;;;;;;5031179;28;20029;-73
2023/09/16 09:29:13;;;;;;;4.83;3.00;;;;;;;;;;5024800;28;20026;-73
2023/09/16 09:31:38;;;;;;;4.38;2.92;;;;;;;;;;5024739;28;20014;-73
2023/09/16 09:34:03;;;;;;;4.45;3.00;;;;;;;;;;5027710;28;20017;-73
2023/09/16 09:36:30;;;;;;;5.03;3.05;;;;;;;;;;5025718;28;20392;-73
2023/09/16 09:38:56;;;;;;;7.32;2.97;;;;;;;;;;5024096;28;20488;-73
2023/09/16 09:41:21;;;;;;;4.78;3.10;;;;;;;;;;5029268;28;20035;-73
2023/09/16 09:43:48;;;;;;;7.93;3.47;;;;;;;;;;5023999;28;20037;-73
2023/09/16 09:46:13;;;;;;;6.10;2.88;;;;;;;;;;5025933;28;20010;-73
2023/09/16 09:48:39;;;;;;;5.80;2.83;;;;;;;;;;5025488;28;20021;-73
2023/09/16 09:51:06;;;;;;;4.93;3.30;;;;;;;;;;5027244;28;20060;-73
2023/09/16 09:53:33;;;;;;;4.95;2.80;;;;;;;;;;5030138;28;20490;-73
2023/09/16 09:55:58;;;;;;;4.57;3.03;;;;;;;;;;5027996;28;20476;-73
2023/09/16 09:58:25;;;;;;;5.95;3.40;;;;;;;;;;5028423;28;20048;-73
2023/09/16 10:00:50;;;;;;;8.32;3.03;;;;;;;;;;5029022;28;20029;-73
2023/09/16 10:03:19;;;;;;;9.02;3.50;;;;;;;;;;5030086;28;20017;-73
2023/09/16 10:05:44;;;;;;;5.75;3.10;;;;;;;;;;5027733;28;20381;-73
2023/09/16 10:08:10;;;;;;;6.13;3.20;;;;;;;;;;5025007;28;20021;-73
2023/09/16 10:10:35;;;;;;;5.00;2.73;;;;;;;;;;5029530;28;20108;-73
2023/09/16 10:13:00;;;;;;;8.20;3.45;;;;;;;;;;5031151;28;20061;-73
2023/09/16 10:15:27;;;;;;;5.33;3.60;;;;;;;;;;5024926;28;20030;-73
2023/09/16 10:17:52;;;;;;;4.95;3.08;;;;;;;;;;5026111;28;20287;-73
2023/09/16 10:20:17;;;;;;;4.75;3.05;;;;;;;;;;5028244;28;20018;-73
2023/09/16 10:22:43;;;;;;;6.10;3.05;;;;;;;;;;5029175;28;20433;-73
2023/09/16 10:25:08;;;;;;;10.05;3.17;;;;;;;;;;5031802;28;20037;-73
2023/09/16 10:27:54;;;;;;;5.38;3.70;;;;;;;;;;5029839;28;20048;-73
2023/09/16 10:30:19;;;;;;;4.75;3.28;;;;;;;;;;5025286;28;20013;-73
2023/09/16 10:32:44;;;;;;;5.43;3.53;;;;;;;;;;5028283;28;20017;-73
2023/09/16 10:35:10;;;;;;;3.33;2.47;;;;;;;;;;5030685;28;20327;-73
2023/09/16 10:37:36;;;;;;;8.25;3.47;;;;;;;;;;5030005;28;20419;-73
2023/09/16 10:40:02;;;;;;;5.72;3.15;;;;;;;;;;5030531;28;20025;-73
2023/09/16 10:42:29;;;;;;;8.10;3.38;;;;;;;;;;5031536;28;20013;-73
2023/09/16 10:44:55;;;;;;;5.10;3.15;;;;;;;;;;5029067;28;20453;-73
2023/09/16 10:47:21;;;;;;;7.22;3.33;;;;;;;;;;5030252;28;20048;-73
2023/09/16 10:49:46;;;;;;;6.88;3.50;;;;;;;;;;5030471;28;20373;-74
2023/09/16 10:52:15;;;;;;;7.72;3.67;;;;;;;;;;5023913;28;20060;-73
2023/09/16 10:54:44;;;;;;;6.05;3.30;;;;;;;;;;5030474;28;20092;-73
2023/09/16 10:57:29;;;;;;;7.33;3.63;;;;;;;;;;5030329;28;20040;-73
2023/09/16 10:59:55;;;;;;;5.93;2.85;;;;;;;;;;5028939;28;20120;-73
2023/09/16 11:02:31;;;;;;;6.13;3.80;;;;;;;;;;5029579;28;20108;-73
2023/09/16 11:04:57;;;;;;;7.30;2.97;;;;;;;;;;5030566;28;20029;-73
2023/09/16 11:07:23;;;;;;;6.93;4.05;;;;;;;;;;5029863;28;20016;-73
2023/09/16 11:09:48;;;;;;;4.10;2.88;;;;;;;;;;5030318;28;20029;-73
2023/09/16 11:12:14;;;;;;;6.90;3.60;;;;;;;;;;5030048;28;20025;-73
2023/09/16 11:14:40;;;;;;;5.93;4.45;;;;;;;;;;5030591;28;20025;-73
2023/09/16 11:17:13;;;;;;;8.80;3.00;;;;;;;;;;5029676;28;20029;-73
2023/09/16 11:19:38;;;;;;;7.30;3.50;;;;;;;;;;5029640;28;20349;-73
2023/09/16 11:22:04;;;;;;;7.60;3.55;;;;;;;;;;5030876;28;20044;-73
2023/09/16 11:24:29;;;;;;;5.27;3.37;;;;;;;;;;5029937;28;20028;-73
2023/09/16 11:26:56;;;;;;;5.37;3.90;;;;;;;;;;5029625;28;20279;-73
2023/09/16 11:29:22;;;;;;;5.97;3.85;;;;;;;;;;5029186;28;20765;-73
2023/09/16 11:31:48;;;;;;;8.13;3.72;;;;;;;;;;5030126;28;20014;-73
2023/09/16 11:34:15;;;;;;;6.50;3.85;;;;;;;;;;5030344;28;20020;-73
2023/09/16 11:36:42;;;;;;;4.25;3.42;;;;;;;;;;5029219;28;20129;-73
2023/09/16 11:39:09;;;;;;;5.72;3.30;;;;;;;;;;5029948;28;20040;-73
2023/09/16 11:41:35;;;;;;;7.88;3.40;;;;;;;;;;5027829;28;20021;-73
2023/09/16 11:44:00;;;;;;;4.50;3.17;;;;;;;;;;5029746;28;20036;-73
2023/09/16 11:46:26;;;;;;;7.90;3.95;;;;;;;;;;5028751;28;20022;-73
2023/09/16 11:48:52;;;;;;;5.07;3.67;;;;;;;;;;5028274;28;20017;-74
2023/09/16 11:51:18;;;;;;;7.72;3.95;;;;;;;;;;5028968;28;20017;-74
2023/09/16 11:53:44;;;;;;;6.50;3.75;;;;;;;;;;5030343;28;20380;-74
2023/09/16 11:56:09;;;;;;;5.32;3.40;;;;;;;;;;5028147;28;20024;-73
2023/09/16 11:58:34;;;;;;;6.63;3.80;;;;;;;;;;5029270;28;20036;-73
2023/09/16 12:01:01;;;;;;;9.15;3.47;;;;;;;;;;5029447;28;20060;-73
2023/09/16 12:03:26;;;;;;;5.60;4.15;;;;;;;;;;5032174;28;20032;-73
2023/09/16 12:05:51;;;;;;;9.50;3.78;;;;;;;;;;5033045;28;20459;-73
2023/09/16 12:08:17;;;;;;;5.13;3.55;;;;;;;;;;5033210;28;20025;-73
2023/09/16 12:10:42;;;;;;;6.33;4.33;;;;;;;;;;5032561;28;20029;-74
2023/09/16 12:13:07;;;;;;;5.28;3.83;;;;;;;;;;5033080;28;20639;-73
2023/09/16 12:15:32;;;;;;;8.13;3.87;;;;;;;;;;5032444;28;20028;-73
2023/09/16 12:17:57;;;;;;;7.97;4.67;;;;;;;;;;5032632;28;20275;-73
2023/09/16 12:20:23;;;;;;;5.20;3.93;;;;;;;;;;5032310;28;20038;-73
2023/09/16 12:22:51;;;;;;;6.40;4.22;;;;;;;;;;5032965;28;20271;-73
2023/09/16 12:25:17;;;;;;;7.00;4.10;;;;;;;;;;5032116;28;20028;-73
2023/09/16 12:27:42;;;;;;;7.30;3.78;;;;;;;;;;5032838;28;20021;-73
2023/09/16 12:30:08;;;;;;;5.13;3.50;;;;;;;;;;5032781;28;20021;-74
2023/09/16 12:32:33;;;;;;;6.50;4.40;;;;;;;;;;5031264;28;20018;-73
2023/09/16 12:35:04;;;;;;;5.10;3.60;;;;;;;;;;5032260;28;20017;-74
2023/09/16 12:37:30;;;;;;;6.97;3.58;;;;;;;;;;5032572;28;20421;-73
2023/09/16 12:39:55;;;;;;;6.72;4.13;;;;;;;;;;5030990;28;20036;-73
2023/09/16 12:42:21;;;;;;;7.88;4.30;;;;;;;;;;5032777;28;20033;-73
2023/09/16 12:44:46;;;;;;;3.97;3.38;;;;;;;;;;5031835;28;20021;-73
2023/09/16 12:47:12;;;;;;;6.45;3.03;;;;;;;;;;5028501;28;20063;-73
2023/09/16 12:49:38;;;;;;;5.38;3.33;;;;;;;;;;5027654;28;20072;-72
2023/09/16 12:52:03;;;;;;;5.45;3.58;;;;;;;;;;5027052;28;20053;-75
2023/09/16 12:54:31;;;;;;;5.40;3.25;;;;;;;;;;5028057;28;20109;-74
2023/09/16 12:56:57;;;;;;;5.90;3.40;;;;;;;;;;5031604;28;20098;-73
2023/09/16 12:59:22;;;;;;;6.07;3.22;;;;;;;;;;5031419;28;20120;-74
2023/09/16 13:01:50;;;;;;;7.37;3.93;;;;;;;;;;5032786;28;20048;-73
2023/09/16 13:04:15;;;;;;;8.70;4.07;;;;;;;;;;5027150;28;20200;-74
2023/09/16 13:06:40;;;;;;;4.50;3.23;;;;;;;;;;5031727;28;20017;-73
2023/09/16 13:09:11;;;;;;;4.93;3.33;;;;;;;;;;5044753;28;20283;-74
2023/09/16 13:11:37;;;;;;;6.22;3.97;;;;;;;;;;5034874;28;20100;-74
2023/09/16 13:14:02;;;;;;;6.72;3.50;;;;;;;;;;5038023;28;20121;-74
2023/09/16 13:16:34;;;;;;;5.40;3.80;;;;;;;;;;5036876;28;20021;-74
2023/09/16 13:19:00;;;;;;;6.63;3.42;;;;;;;;;;5030957;28;20030;-74
2023/09/16 13:21:30;;;;;;;4.20;3.00;;;;;;;;;;5033426;28;20021;-73
2023/09/16 13:23:56;;;;;;;4.45;3.40;;;;;;;;;;5048601;28;20021;-74
2023/09/16 13:26:21;;;;;;;6.18;3.35;;;;;;;;;;5037546;28;20353;-74
2023/09/16 13:29:00;;;;;;;6.03;3.30;;;;;;;;;;5032410;28;20017;-73
2023/09/16 13:31:26;;;;;;;4.47;3.15;;;;;;;;;;5036987;28;20070;-73
2023/09/16 13:33:53;;;;;;;5.13;3.47;;;;;;;;;;5034238;28;20026;-74
2023/09/16 13:36:20;;;;;;;6.35;3.78;;;;;;;;;;5043819;28;20021;-74
2023/09/16 13:38:46;;;;;;;6.13;4.35;;;;;;;;;;5042922;28;20025;-74
2023/09/16 13:41:11;;;;;;;5.78;3.92;;;;;;;;;;5029771;28;20025;-74
2023/09/16 13:43:37;;;;;;;4.87;3.37;;;;;;;;;;5029692;28;20473;-74
2023/09/16 13:46:03;;;;;;;7.82;4.22;;;;;;;;;;5030722;28;20024;-74
2023/09/16 13:48:29;;;;;;;6.07;3.83;;;;;;;;;;5030275;28;20013;-74
2023/09/16 13:50:54;;;;;;;4.25;3.28;;;;;;;;;;5031307;28;20013;-74
2023/09/16 13:53:21;;;;;;;4.97;3.50;;;;;;;;;;5039352;28;20045;-74
2023/09/16 13:55:47;;;;;;;5.32;3.70;;;;;;;;;;5039103;28;20074;-74
2023/09/16 13:58:13;;;;;;;6.72;3.60;;;;;;;;;;5049782;28;20029;-74
2023/09/16 14:00:38;;;;;;;7.78;3.58;;;;;;;;;;5040907;28;20451;-74
2023/09/16 14:03:03;;;;;;;5.20;3.45;;;;;;;;;;5033231;28;20119;-74
2023/09/16 14:05:29;;;;;;;5.30;3.03;;;;;;;;;;5029779;28;20020;-74
2023/09/16 14:07:55;;;;;;;4.50;3.30;;;;;;;;;;5028787;28;20469;-74
2023/09/16 14:10:23;;;;;;;7.80;3.38;;;;;;;;;;5032419;28;20036;-74
2023/09/16 14:12:48;;;;;;;4.80;3.22;;;;;;;;;;5031438;28;20017;-74
2023/09/16 14:15:14;;;;;;;6.10;3.57;;;;;;;;;;5024966;28;21636;-74
2023/09/16 14:17:39;;;;;;;4.80;3.30;;;;;;;;;;5023178;28;20072;-73
2023/09/16 14:20:04;;;;;;;5.13;3.47;;;;;;;;;;5023435;28;20032;-74
2023/09/16 14:22:29;;;;;;;5.25;3.55;;;;;;;;;;5021295;28;20033;-74
2023/09/16 14:24:55;;;;;;;5.38;3.53;;;;;;;;;;5024011;28;20384;-74
2023/09/16 14:27:21;;;;;;;4.38;3.45;;;;;;;;;;5029882;28;20201;-74
2023/09/16 14:29:46;;;;;;;6.57;3.40;;;;;;;;;;5031711;28;20025;-74
2023/09/16 14:32:11;;;;;;;8.90;4.87;;;;;;;;;;5027696;28;20018;-74
2023/09/16 14:34:36;;;;;;;7.60;3.75;;;;;;;;;;5032126;28;20487;-74